sensor_id;sensor_type;location;lat;lon;timestamp;temperature;humidity
11540;DHT22;5826;54.756;9.192;2024-01-15T00:00:38;3.30;96.40
11540;DHT22;5826;54.756;9.192;2024-01-15T00:03:04;3.70;96.60
11540;DHT22;5826;54.756;9.192;2024-01-15T00:05:30;3.30;96.30
11540;DHT22;5826;54.756;9.192;2024-01-15T00:07:55;3.30;96.10
11540;DHT22;5826;54.756;9.192;2024-01-15T00:10:20;3.30;95.80
11540;DHT22;5826;54.756;9.192;2024-01-15T00:12:46;3.30;95.60
11540;DHT22;5826;54.756;9.192;2024-01-15T00:15:12;3.30;95.60
11540;DHT22;5826;54.756;9.192;2024-01-15T00:17:37;3.30;95.40
11540;DHT22;5826;54.756;9.192;2024-01-15T00:20:03;3.30;95.40
11540;DHT22;5826;54.756;9.192;2024-01-15T00:22:29;3.30;95.30
11540;DHT22;5826;54.756;9.192;2024-01-15T00:24:54;3.30;95.30
11540;DHT22;5826;54.756;9.192;2024-01-15T00:27:20;3.30;95.30
11540;DHT22;5826;54.756;9.192;2024-01-15T00:29:45;3.30;95.10
11540;DHT22;5826;54.756;9.192;2024-01-15T00:32:11;3.30;95.00
11540;DHT22;5826;54.756;9.192;2024-01-15T00:34:36;3.30;94.50
11540;DHT22;5826;54.756;9.192;2024-01-15T00:37:02;3.30;94.50
11540;DHT22;5826;54.756;9.192;2024-01-15T00:39:28;3.30;94.20
11540;DHT22;5826;54.756;9.192;2024-01-15T00:41:53;3.30;94.20
11540;DHT22;5826;54.756;9.192;2024-01-15T00:44:19;3.30;94.00
11540;DHT22;5826;54.756;9.192;2024-01-15T00:46:45;3.30;93.80
11540;DHT22;5826;54.756;9.192;2024-01-15T00:49:11;3.30;93.50
11540;DHT22;5826;54.756;9.192;2024-01-15T00:51:37;3.90;93.40
11540;DHT22;5826;54.756;9.192;2024-01-15T00:54:03;3.30;93.40
11540;DHT22;5826;54.756;9.192;2024-01-15T00:56:28;3.30;93.00
11540;DHT22;5826;54.756;9.192;2024-01-15T00:58:53;3.30;93.30
11540;DHT22;5826;54.756;9.192;2024-01-15T01:01:19;3.30;93.20
11540;DHT22;5826;54.756;9.192;2024-01-15T01:03:44;3.30;93.30
11540;DHT22;5826;54.756;9.192;2024-01-15T01:06:10;3.30;92.90
11540;DHT22;5826;54.756;9.192;2024-01-15T01:08:35;3.30;92.60
11540;DHT22;5826;54.756;9.192;2024-01-15T01:11:01;3.30;92.70
11540;DHT22;5826;54.756;9.192;2024-01-15T01:13:26;3.30;92.60
11540;DHT22;5826;54.756;9.192;2024-01-15T01:15:52;3.30;92.30
11540;DHT22;5826;54.756;9.192;2024-01-15T01:18:17;3.30;92.10
11540;DHT22;5826;54.756;9.192;2024-01-15T01:20:43;3.30;92.60
11540;DHT22;5826;54.756;9.192;2024-01-15T01:23:08;3.30;92.60
11540;DHT22;5826;54.756;9.192;2024-01-15T01:25:34;3.30;92.60
11540;DHT22;5826;54.756;9.192;2024-01-15T01:27:59;3.30;91.90
11540;DHT22;5826;54.756;9.192;2024-01-15T01:30:25;3.30;92.00
11540;DHT22;5826;54.756;9.192;2024-01-15T01:32:50;3.20;91.60
11540;DHT22;5826;54.756;9.192;2024-01-15T01:35:15;3.30;91.10
11540;DHT22;5826;54.756;9.192;2024-01-15T01:37:41;3.30;91.50
11540;DHT22;5826;54.756;9.192;2024-01-15T01:40:07;3.40;91.70
11540;DHT22;5826;54.756;9.192;2024-01-15T01:42:33;3.30;91.90
11540;DHT22;5826;54.756;9.192;2024-01-15T01:44:58;3.50;92.40
11540;DHT22;5826;54.756;9.192;2024-01-15T01:47:24;3.30;92.00
11540;DHT22;5826;54.756;9.192;2024-01-15T01:49:52;3.30;92.30
11540;DHT22;5826;54.756;9.192;2024-01-15T01:52:18;3.30;92.30
11540;DHT22;5826;54.756;9.192;2024-01-15T01:54:43;3.70;92.60
11540;DHT22;5826;54.756;9.192;2024-01-15T01:57:10;3.30;92.60
11540;DHT22;5826;54.756;9.192;2024-01-15T01:59:37;3.30;92.70
11540;DHT22;5826;54.756;9.192;2024-01-15T02:02:04;3.30;92.90
11540;DHT22;5826;54.756;9.192;2024-01-15T02:04:31;3.30;93.40
11540;DHT22;5826;54.756;9.192;2024-01-15T02:06:57;3.20;93.20
11540;DHT22;5826;54.756;9.192;2024-01-15T02:09:22;3.20;93.30
11540;DHT22;5826;54.756;9.192;2024-01-15T02:11:48;3.30;93.30
11540;DHT22;5826;54.756;9.192;2024-01-15T02:14:14;3.30;93.40
11540;DHT22;5826;54.756;9.192;2024-01-15T02:16:40;3.40;93.30
11540;DHT22;5826;54.756;9.192;2024-01-15T02:19:05;3.40;93.30
11540;DHT22;5826;54.756;9.192;2024-01-15T02:21:31;3.40;93.00
11540;DHT22;5826;54.756;9.192;2024-01-15T02:23:57;3.40;93.50
11540;DHT22;5826;54.756;9.192;2024-01-15T02:26:23;3.30;93.50
11540;DHT22;5826;54.756;9.192;2024-01-15T02:28:50;3.20;93.70
11540;DHT22;5826;54.756;9.192;2024-01-15T02:31:16;3.20;94.00
11540;DHT22;5826;54.756;9.192;2024-01-15T02:33:43;3.10;94.10
11540;DHT22;5826;54.756;9.192;2024-01-15T02:36:09;3.10;94.30
11540;DHT22;5826;54.756;9.192;2024-01-15T02:38:34;3.10;94.20
11540;DHT22;5826;54.756;9.192;2024-01-15T02:41:00;3.10;93.80
11540;DHT22;5826;54.756;9.192;2024-01-15T02:43:25;3.10;93.80
11540;DHT22;5826;54.756;9.192;2024-01-15T02:45:51;3.10;93.60
11540;DHT22;5826;54.756;9.192;2024-01-15T02:48:16;3.00;93.50
11540;DHT22;5826;54.756;9.192;2024-01-15T02:50:42;3.00;93.50
11540;DHT22;5826;54.756;9.192;2024-01-15T02:53:07;3.00;93.30
11540;DHT22;5826;54.756;9.192;2024-01-15T02:55:33;3.00;92.90
11540;DHT22;5826;54.756;9.192;2024-01-15T02:57:59;3.00;92.30
11540;DHT22;5826;54.756;9.192;2024-01-15T03:00:24;3.00;92.10
11540;DHT22;5826;54.756;9.192;2024-01-15T03:02:50;3.10;91.90
11540;DHT22;5826;54.756;9.192;2024-01-15T03:05:16;3.10;91.70
11540;DHT22;5826;54.756;9.192;2024-01-15T03:07:42;3.10;91.90
11540;DHT22;5826;54.756;9.192;2024-01-15T03:10:08;3.10;91.70
11540;DHT22;5826;54.756;9.192;2024-01-15T03:12:33;3.10;91.50
11540;DHT22;5826;54.756;9.192;2024-01-15T03:14:59;3.00;91.90
11540;DHT22;5826;54.756;9.192;2024-01-15T03:17:25;3.10;91.40
11540;DHT22;5826;54.756;9.192;2024-01-15T03:19:50;3.10;91.50
11540;DHT22;5826;54.756;9.192;2024-01-15T03:22:17;3.10;91.80
11540;DHT22;5826;54.756;9.192;2024-01-15T03:24:43;3.10;91.20
11540;DHT22;5826;54.756;9.192;2024-01-15T03:27:08;3.10;91.30
11540;DHT22;5826;54.756;9.192;2024-01-15T03:29:34;3.10;91.50
11540;DHT22;5826;54.756;9.192;2024-01-15T03:31:59;3.10;91.60
11540;DHT22;5826;54.756;9.192;2024-01-15T03:34:25;3.10;91.90
11540;DHT22;5826;54.756;9.192;2024-01-15T03:36:50;3.10;91.80
11540;DHT22;5826;54.756;9.192;2024-01-15T03:39:16;3.00;92.00
11540;DHT22;5826;54.756;9.192;2024-01-15T03:41:41;3.00;92.10
11540;DHT22;5826;54.756;9.192;2024-01-15T03:44:07;3.10;92.20
11540;DHT22;5826;54.756;9.192;2024-01-15T03:46:32;3.00;92.30
11540;DHT22;5826;54.756;9.192;2024-01-15T03:48:58;3.00;92.60
11540;DHT22;5826;54.756;9.192;2024-01-15T03:51:23;3.10;93.00
11540;DHT22;5826;54.756;9.192;2024-01-15T03:53:49;3.00;93.10
11540;DHT22;5826;54.756;9.192;2024-01-15T03:56:14;3.00;92.90
11540;DHT22;5826;54.756;9.192;2024-01-15T03:58:40;3.00;93.10
11540;DHT22;5826;54.756;9.192;2024-01-15T04:01:11;3.50;93.20
11540;DHT22;5826;54.756;9.192;2024-01-15T04:03:37;3.10;92.90
11540;DHT22;5826;54.756;9.192;2024-01-15T04:06:03;3.10;92.80
11540;DHT22;5826;54.756;9.192;2024-01-15T04:08:29;3.10;92.60
11540;DHT22;5826;54.756;9.192;2024-01-15T04:10:55;3.80;93.20
11540;DHT22;5826;54.756;9.192;2024-01-15T04:13:21;3.20;92.60
11540;DHT22;5826;54.756;9.192;2024-01-15T04:15:46;3.20;93.00
11540;DHT22;5826;54.756;9.192;2024-01-15T04:18:12;3.20;92.40
11540;DHT22;5826;54.756;9.192;2024-01-15T04:20:37;3.20;92.70
11540;DHT22;5826;54.756;9.192;2024-01-15T04:23:04;3.20;92.50
11540;DHT22;5826;54.756;9.192;2024-01-15T04:25:29;3.20;91.70
11540;DHT22;5826;54.756;9.192;2024-01-15T04:27:55;3.10;91.60
11540;DHT22;5826;54.756;9.192;2024-01-15T04:30:20;3.10;91.70
11540;DHT22;5826;54.756;9.192;2024-01-15T04:32:46;3.10;92.10
11540;DHT22;5826;54.756;9.192;2024-01-15T04:35:12;3.00;91.80
11540;DHT22;5826;54.756;9.192;2024-01-15T04:37:38;3.00;92.20
11540;DHT22;5826;54.756;9.192;2024-01-15T04:40:03;3.00;92.40
11540;DHT22;5826;54.756;9.192;2024-01-15T04:42:29;2.90;92.20
11540;DHT22;5826;54.756;9.192;2024-01-15T04:44:55;2.90;92.20
11540;DHT22;5826;54.756;9.192;2024-01-15T04:47:20;2.90;92.90
11540;DHT22;5826;54.756;9.192;2024-01-15T04:49:46;2.90;92.10
11540;DHT22;5826;54.756;9.192;2024-01-15T04:52:11;2.90;92.40
11540;DHT22;5826;54.756;9.192;2024-01-15T04:54:38;2.80;92.30
11540;DHT22;5826;54.756;9.192;2024-01-15T04:57:03;2.90;91.90
11540;DHT22;5826;54.756;9.192;2024-01-15T04:59:29;2.80;92.60
11540;DHT22;5826;54.756;9.192;2024-01-15T05:01:55;2.80;92.80
11540;DHT22;5826;54.756;9.192;2024-01-15T05:04:20;2.80;92.70
11540;DHT22;5826;54.756;9.192;2024-01-15T05:06:46;2.80;92.50
11540;DHT22;5826;54.756;9.192;2024-01-15T05:09:12;2.70;93.00
11540;DHT22;5826;54.756;9.192;2024-01-15T05:11:39;2.70;93.10
11540;DHT22;5826;54.756;9.192;2024-01-15T05:14:04;2.70;93.40
11540;DHT22;5826;54.756;9.192;2024-01-15T05:16:30;2.70;93.40
11540;DHT22;5826;54.756;9.192;2024-01-15T05:18:55;2.70;93.40
11540;DHT22;5826;54.756;9.192;2024-01-15T05:21:21;2.80;93.20
11540;DHT22;5826;54.756;9.192;2024-01-15T05:23:46;2.60;93.70
11540;DHT22;5826;54.756;9.192;2024-01-15T05:26:12;2.60;93.60
11540;DHT22;5826;54.756;9.192;2024-01-15T05:28:37;2.60;93.40
11540;DHT22;5826;54.756;9.192;2024-01-15T05:31:03;2.50;93.30
11540;DHT22;5826;54.756;9.192;2024-01-15T05:33:29;2.50;93.50
11540;DHT22;5826;54.756;9.192;2024-01-15T05:35:55;2.50;93.70
11540;DHT22;5826;54.756;9.192;2024-01-15T05:38:20;2.50;94.00
11540;DHT22;5826;54.756;9.192;2024-01-15T05:40:46;2.50;93.90
11540;DHT22;5826;54.756;9.192;2024-01-15T05:43:11;2.50;94.20
11540;DHT22;5826;54.756;9.192;2024-01-15T05:45:38;2.50;94.20
11540;DHT22;5826;54.756;9.192;2024-01-15T05:48:04;2.50;94.20
11540;DHT22;5826;54.756;9.192;2024-01-15T05:50:29;2.50;94.40
11540;DHT22;5826;54.756;9.192;2024-01-15T05:52:55;2.50;94.50
11540;DHT22;5826;54.756;9.192;2024-01-15T05:55:20;2.50;94.60
11540;DHT22;5826;54.756;9.192;2024-01-15T05:57:46;2.50;94.50
11540;DHT22;5826;54.756;9.192;2024-01-15T06:00:12;2.50;94.50
11540;DHT22;5826;54.756;9.192;2024-01-15T06:02:38;2.40;94.30
11540;DHT22;5826;54.756;9.192;2024-01-15T06:05:04;2.40;94.40
11540;DHT22;5826;54.756;9.192;2024-01-15T06:07:30;2.40;94.50
11540;DHT22;5826;54.756;9.192;2024-01-15T06:09:56;2.40;94.40
11540;DHT22;5826;54.756;9.192;2024-01-15T06:12:24;2.40;94.70
11540;DHT22;5826;54.756;9.192;2024-01-15T06:14:49;2.30;94.60
11540;DHT22;5826;54.756;9.192;2024-01-15T06:17:15;2.40;94.70
11540;DHT22;5826;54.756;9.192;2024-01-15T06:19:40;2.30;94.60
11540;DHT22;5826;54.756;9.192;2024-01-15T06:22:06;2.40;94.90
11540;DHT22;5826;54.756;9.192;2024-01-15T06:24:31;2.40;94.70
11540;DHT22;5826;54.756;9.192;2024-01-15T06:26:57;2.30;94.70
11540;DHT22;5826;54.756;9.192;2024-01-15T06:29:25;2.30;94.80
11540;DHT22;5826;54.756;9.192;2024-01-15T06:31:51;2.30;94.80
11540;DHT22;5826;54.756;9.192;2024-01-15T06:34:17;2.30;94.90
11540;DHT22;5826;54.756;9.192;2024-01-15T06:36:42;2.80;95.00
11540;DHT22;5826;54.756;9.192;2024-01-15T06:39:08;2.40;94.90
11540;DHT22;5826;54.756;9.192;2024-01-15T06:41:35;2.40;94.90
11540;DHT22;5826;54.756;9.192;2024-01-15T06:44:01;2.40;94.80
11540;DHT22;5826;54.756;9.192;2024-01-15T06:46:26;2.80;94.90
11540;DHT22;5826;54.756;9.192;2024-01-15T06:48:51;2.40;94.80
11540;DHT22;5826;54.756;9.192;2024-01-15T06:51:17;2.40;94.90
11540;DHT22;5826;54.756;9.192;2024-01-15T06:53:43;2.50;95.00
11540;DHT22;5826;54.756;9.192;2024-01-15T06:56:08;2.50;95.00
11540;DHT22;5826;54.756;9.192;2024-01-15T06:58:34;2.40;95.00
11540;DHT22;5826;54.756;9.192;2024-01-15T07:00:59;2.50;95.00
11540;DHT22;5826;54.756;9.192;2024-01-15T07:03:25;2.40;95.00
11540;DHT22;5826;54.756;9.192;2024-01-15T07:05:50;2.40;95.00
11540;DHT22;5826;54.756;9.192;2024-01-15T07:08:16;2.40;95.00
11540;DHT22;5826;54.756;9.192;2024-01-15T07:10:42;2.40;94.80
11540;DHT22;5826;54.756;9.192;2024-01-15T07:13:08;2.40;94.90
11540;DHT22;5826;54.756;9.192;2024-01-15T07:15:33;2.30;95.00
11540;DHT22;5826;54.756;9.192;2024-01-15T07:17:59;2.30;95.00
11540;DHT22;5826;54.756;9.192;2024-01-15T07:20:24;2.20;94.70
11540;DHT22;5826;54.756;9.192;2024-01-15T07:22:50;2.10;95.00
11540;DHT22;5826;54.756;9.192;2024-01-15T07:25:16;2.10;95.10
11540;DHT22;5826;54.756;9.192;2024-01-15T07:27:41;2.10;95.10
11540;DHT22;5826;54.756;9.192;2024-01-15T07:30:10;2.00;95.10
11540;DHT22;5826;54.756;9.192;2024-01-15T07:32:36;2.00;95.20
11540;DHT22;5826;54.756;9.192;2024-01-15T07:35:02;2.50;95.20
11540;DHT22;5826;54.756;9.192;2024-01-15T07:37:28;2.00;95.00
11540;DHT22;5826;54.756;9.192;2024-01-15T07:39:54;2.00;95.00
11540;DHT22;5826;54.756;9.192;2024-01-15T07:42:19;2.00;95.00
11540;DHT22;5826;54.756;9.192;2024-01-15T07:44:45;2.00;94.90
11540;DHT22;5826;54.756;9.192;2024-01-15T07:47:10;1.90;94.80
11540;DHT22;5826;54.756;9.192;2024-01-15T07:49:36;1.90;95.00
11540;DHT22;5826;54.756;9.192;2024-01-15T07:52:01;1.80;94.60
11540;DHT22;5826;54.756;9.192;2024-01-15T07:54:27;1.80;94.90
11540;DHT22;5826;54.756;9.192;2024-01-15T07:56:57;1.80;94.80
11540;DHT22;5826;54.756;9.192;2024-01-15T07:59:23;1.80;94.70
11540;DHT22;5826;54.756;9.192;2024-01-15T08:01:49;1.80;94.50
11540;DHT22;5826;54.756;9.192;2024-01-15T08:04:14;1.80;94.30
11540;DHT22;5826;54.756;9.192;2024-01-15T08:06:40;1.70;94.00
11540;DHT22;5826;54.756;9.192;2024-01-15T08:09:06;1.70;94.40
11540;DHT22;5826;54.756;9.192;2024-01-15T08:11:31;1.80;94.40
11540;DHT22;5826;54.756;9.192;2024-01-15T08:13:57;1.70;94.50
11540;DHT22;5826;54.756;9.192;2024-01-15T08:16:23;1.80;94.30
11540;DHT22;5826;54.756;9.192;2024-01-15T08:18:50;1.80;94.40
11540;DHT22;5826;54.756;9.192;2024-01-15T08:21:15;1.80;94.30
11540;DHT22;5826;54.756;9.192;2024-01-15T08:23:41;1.80;94.40
11540;DHT22;5826;54.756;9.192;2024-01-15T08:26:07;1.80;94.50
11540;DHT22;5826;54.756;9.192;2024-01-15T08:28:33;1.80;94.10
11540;DHT22;5826;54.756;9.192;2024-01-15T08:30:58;1.80;93.90
11540;DHT22;5826;54.756;9.192;2024-01-15T08:33:23;1.80;94.10
11540;DHT22;5826;54.756;9.192;2024-01-15T08:35:49;1.80;94.00
11540;DHT22;5826;54.756;9.192;2024-01-15T08:38:15;1.80;93.70
11540;DHT22;5826;54.756;9.192;2024-01-15T08:40:40;1.80;94.20
11540;DHT22;5826;54.756;9.192;2024-01-15T08:43:06;1.80;94.10
11540;DHT22;5826;54.756;9.192;2024-01-15T08:45:32;1.80;94.40
11540;DHT22;5826;54.756;9.192;2024-01-15T08:47:58;1.90;94.50
11540;DHT22;5826;54.756;9.192;2024-01-15T08:50:24;2.00;94.60
11540;DHT22;5826;54.756;9.192;2024-01-15T08:52:49;2.00;94.20
11540;DHT22;5826;54.756;9.192;2024-01-15T08:55:14;2.00;94.00
11540;DHT22;5826;54.756;9.192;2024-01-15T08:57:40;2.00;93.70
11540;DHT22;5826;54.756;9.192;2024-01-15T09:00:06;2.10;94.00
11540;DHT22;5826;54.756;9.192;2024-01-15T09:02:34;2.10;93.90
11540;DHT22;5826;54.756;9.192;2024-01-15T09:05:00;2.10;93.80
11540;DHT22;5826;54.756;9.192;2024-01-15T09:07:26;2.20;93.80
11540;DHT22;5826;54.756;9.192;2024-01-15T09:09:52;2.20;93.90
11540;DHT22;5826;54.756;9.192;2024-01-15T09:12:18;2.50;94.00
11540;DHT22;5826;54.756;9.192;2024-01-15T09:14:46;2.20;93.70
11540;DHT22;5826;54.756;9.192;2024-01-15T09:17:12;2.20;93.80
11540;DHT22;5826;54.756;9.192;2024-01-15T09:19:37;2.20;93.50
11540;DHT22;5826;54.756;9.192;2024-01-15T09:22:05;2.20;93.60
11540;DHT22;5826;54.756;9.192;2024-01-15T09:24:31;2.20;93.70
11540;DHT22;5826;54.756;9.192;2024-01-15T09:26:56;2.60;93.70
11540;DHT22;5826;54.756;9.192;2024-01-15T09:29:22;2.30;93.60
11540;DHT22;5826;54.756;9.192;2024-01-15T09:31:49;2.40;93.60
11540;DHT22;5826;54.756;9.192;2024-01-15T09:34:15;2.50;93.80
11540;DHT22;5826;54.756;9.192;2024-01-15T09:36:41;2.50;93.70
11540;DHT22;5826;54.756;9.192;2024-01-15T09:39:10;2.50;93.60
11540;DHT22;5826;54.756;9.192;2024-01-15T09:41:37;2.50;93.40
11540;DHT22;5826;54.756;9.192;2024-01-15T09:44:06;2.40;93.50
11540;DHT22;5826;54.756;9.192;2024-01-15T09:46:33;2.40;93.60
11540;DHT22;5826;54.756;9.192;2024-01-15T09:49:00;2.30;93.70
11540;DHT22;5826;54.756;9.192;2024-01-15T09:51:28;2.40;93.70
11540;DHT22;5826;54.756;9.192;2024-01-15T09:53:57;2.40;93.50
11540;DHT22;5826;54.756;9.192;2024-01-15T09:56:23;2.30;93.80
11540;DHT22;5826;54.756;9.192;2024-01-15T09:58:50;2.40;94.00
11540;DHT22;5826;54.756;9.192;2024-01-15T10:01:21;2.40;93.20
11540;DHT22;5826;54.756;9.192;2024-01-15T10:03:47;2.40;93.50
11540;DHT22;5826;54.756;9.192;2024-01-15T10:06:17;2.80;93.60
11540;DHT22;5826;54.756;9.192;2024-01-15T10:08:50;2.40;93.10
11540;DHT22;5826;54.756;9.192;2024-01-15T10:11:16;2.30;93.50
11540;DHT22;5826;54.756;9.192;2024-01-15T10:13:48;2.40;93.10
11540;DHT22;5826;54.756;9.192;2024-01-15T10:16:21;2.40;92.90
11540;DHT22;5826;54.756;9.192;2024-01-15T10:18:47;2.30;92.60
11540;DHT22;5826;54.756;9.192;2024-01-15T10:21:13;2.30;92.80
11540;DHT22;5826;54.756;9.192;2024-01-15T10:23:39;2.40;92.90
11540;DHT22;5826;54.756;9.192;2024-01-15T10:26:05;2.40;93.00
11540;DHT22;5826;54.756;9.192;2024-01-15T10:28:30;2.40;91.90
11540;DHT22;5826;54.756;9.192;2024-01-15T10:30:58;2.40;91.90
11540;DHT22;5826;54.756;9.192;2024-01-15T10:33:27;2.40;92.10
11540;DHT22;5826;54.756;9.192;2024-01-15T10:35:58;2.50;92.40
11540;DHT22;5826;54.756;9.192;2024-01-15T10:38:24;2.50;92.50
11540;DHT22;5826;54.756;9.192;2024-01-15T10:40:56;2.60;91.20
11540;DHT22;5826;54.756;9.192;2024-01-15T10:43:22;2.60;91.80
11540;DHT22;5826;54.756;9.192;2024-01-15T10:45:49;2.60;91.50
11540;DHT22;5826;54.756;9.192;2024-01-15T10:48:19;2.60;91.50
11540;DHT22;5826;54.756;9.192;2024-01-15T10:50:48;2.60;92.20
11540;DHT22;5826;54.756;9.192;2024-01-15T10:53:15;2.60;92.50
11540;DHT22;5826;54.756;9.192;2024-01-15T10:55:42;2.70;92.00
11540;DHT22;5826;54.756;9.192;2024-01-15T10:58:08;3.00;92.10
11540;DHT22;5826;54.756;9.192;2024-01-15T11:00:38;3.20;91.60
11540;DHT22;5826;54.756;9.192;2024-01-15T11:03:05;2.60;92.30
11540;DHT22;5826;54.756;9.192;2024-01-15T11:05:36;2.60;92.00
11540;DHT22;5826;54.756;9.192;2024-01-15T11:08:02;2.60;91.60
11540;DHT22;5826;54.756;9.192;2024-01-15T11:10:47;2.60;91.80
11540;DHT22;5826;54.756;9.192;2024-01-15T11:13:41;2.60;91.40
11540;DHT22;5826;54.756;9.192;2024-01-15T11:16:10;2.60;90.40
11540;DHT22;5826;54.756;9.192;2024-01-15T11:18:42;2.60;91.00
11540;DHT22;5826;54.756;9.192;2024-01-15T11:26:31;2.70;90.90
11540;DHT22;5826;54.756;9.192;2024-01-15T11:28:59;2.70;90.80
11540;DHT22;5826;54.756;9.192;2024-01-15T11:31:30;2.70;90.60
11540;DHT22;5826;54.756;9.192;2024-01-15T11:34:14;2.70;91.00
11540;DHT22;5826;54.756;9.192;2024-01-15T11:41:58;2.90;91.90
11540;DHT22;5826;54.756;9.192;2024-01-15T11:44:25;2.90;91.90
11540;DHT22;5826;54.756;9.192;2024-01-15T11:46:59;2.90;91.70
11540;DHT22;5826;54.756;9.192;2024-01-15T11:50:01;3.10;91.50
11540;DHT22;5826;54.756;9.192;2024-01-15T11:52:32;2.80;91.80
11540;DHT22;5826;54.756;9.192;2024-01-15T11:55:02;2.80;91.50
11540;DHT22;5826;54.756;9.192;2024-01-15T11:57:50;2.70;92.10
11540;DHT22;5826;54.756;9.192;2024-01-15T12:00:17;2.80;92.70
11540;DHT22;5826;54.756;9.192;2024-01-15T12:02:44;3.00;92.00
11540;DHT22;5826;54.756;9.192;2024-01-15T12:05:11;2.70;91.90
11540;DHT22;5826;54.756;9.192;2024-01-15T12:07:41;2.80;92.40
11540;DHT22;5826;54.756;9.192;2024-01-15T12:10:11;2.80;92.60
11540;DHT22;5826;54.756;9.192;2024-01-15T12:15:12;2.90;92.00
11540;DHT22;5826;54.756;9.192;2024-01-15T12:17:38;3.00;91.50
11540;DHT22;5826;54.756;9.192;2024-01-15T12:20:05;3.10;91.90
11540;DHT22;5826;54.756;9.192;2024-01-15T12:22:30;3.10;91.80
11540;DHT22;5826;54.756;9.192;2024-01-15T12:24:56;3.20;91.60
11540;DHT22;5826;54.756;9.192;2024-01-15T12:27:23;3.20;91.80
11540;DHT22;5826;54.756;9.192;2024-01-15T12:29:49;3.30;91.90
11540;DHT22;5826;54.756;9.192;2024-01-15T12:32:14;3.40;92.10
11540;DHT22;5826;54.756;9.192;2024-01-15T12:34:40;4.10;91.80
11540;DHT22;5826;54.756;9.192;2024-01-15T12:37:07;3.70;90.40
11540;DHT22;5826;54.756;9.192;2024-01-15T12:39:36;3.90;90.10
11540;DHT22;5826;54.756;9.192;2024-01-15T12:42:02;4.00;87.70
11540;DHT22;5826;54.756;9.192;2024-01-15T12:44:28;4.00;88.90
11540;DHT22;5826;54.756;9.192;2024-01-15T12:46:54;4.50;87.50
11540;DHT22;5826;54.756;9.192;2024-01-15T12:49:20;3.80;87.60
11540;DHT22;5826;54.756;9.192;2024-01-15T12:52:01;3.60;87.90
11540;DHT22;5826;54.756;9.192;2024-01-15T12:54:26;3.50;89.30
11540;DHT22;5826;54.756;9.192;2024-01-15T12:56:52;3.40;91.00
11540;DHT22;5826;54.756;9.192;2024-01-15T12:59:18;3.40;91.60
11540;DHT22;5826;54.756;9.192;2024-01-15T13:01:45;3.50;91.60
11540;DHT22;5826;54.756;9.192;2024-01-15T13:04:11;3.60;90.20
11540;DHT22;5826;54.756;9.192;2024-01-15T13:06:37;3.80;90.50
11540;DHT22;5826;54.756;9.192;2024-01-15T13:09:03;3.90;90.20
11540;DHT22;5826;54.756;9.192;2024-01-15T13:11:34;3.90;89.20
11540;DHT22;5826;54.756;9.192;2024-01-15T13:14:00;3.80;90.20
11540;DHT22;5826;54.756;9.192;2024-01-15T13:16:25;3.60;91.00
11540;DHT22;5826;54.756;9.192;2024-01-15T13:18:55;3.60;91.70
11540;DHT22;5826;54.756;9.192;2024-01-15T13:21:20;3.50;92.20
11540;DHT22;5826;54.756;9.192;2024-01-15T13:23:46;3.60;92.10
11540;DHT22;5826;54.756;9.192;2024-01-15T13:26:12;3.90;92.00
11540;DHT22;5826;54.756;9.192;2024-01-15T13:28:37;4.30;92.20
11540;DHT22;5826;54.756;9.192;2024-01-15T13:31:03;4.70;92.60
11540;DHT22;5826;54.756;9.192;2024-01-15T13:33:30;4.90;91.80
11540;DHT22;5826;54.756;9.192;2024-01-15T13:35:55;4.80;91.90
11540;DHT22;5826;54.756;9.192;2024-01-15T13:38:21;4.70;92.40
11540;DHT22;5826;54.756;9.192;2024-01-15T13:40:46;4.60;93.50
11540;DHT22;5826;54.756;9.192;2024-01-15T13:43:12;4.70;93.00
11540;DHT22;5826;54.756;9.192;2024-01-15T13:45:40;4.80;91.40
11540;DHT22;5826;54.756;9.192;2024-01-15T13:48:06;4.90;91.50
11540;DHT22;5826;54.756;9.192;2024-01-15T13:50:33;4.90;91.30
11540;DHT22;5826;54.756;9.192;2024-01-15T13:53:00;5.00;92.40
11540;DHT22;5826;54.756;9.192;2024-01-15T13:55:25;5.00;93.50
11540;DHT22;5826;54.756;9.192;2024-01-15T13:57:51;5.00;93.40
11540;DHT22;5826;54.756;9.192;2024-01-15T14:00:16;5.00;93.70
11540;DHT22;5826;54.756;9.192;2024-01-15T14:02:45;4.90;93.20
11540;DHT22;5826;54.756;9.192;2024-01-15T14:05:12;4.80;94.10
11540;DHT22;5826;54.756;9.192;2024-01-15T14:07:41;4.70;94.10
11540;DHT22;5826;54.756;9.192;2024-01-15T14:10:10;4.60;94.30
11540;DHT22;5826;54.756;9.192;2024-01-15T14:12:35;4.30;94.40
11540;DHT22;5826;54.756;9.192;2024-01-15T14:15:05;4.10;94.80
11540;DHT22;5826;54.756;9.192;2024-01-15T14:17:31;3.80;94.90
11540;DHT22;5826;54.756;9.192;2024-01-15T14:19:57;3.60;95.40
11540;DHT22;5826;54.756;9.192;2024-01-15T14:22:22;3.50;95.50
11540;DHT22;5826;54.756;9.192;2024-01-15T14:24:48;3.70;95.40
11540;DHT22;5826;54.756;9.192;2024-01-15T14:27:14;3.60;95.00
11540;DHT22;5826;54.756;9.192;2024-01-15T14:29:39;3.20;94.70
11540;DHT22;5826;54.756;9.192;2024-01-15T14:32:05;3.10;94.80
11540;DHT22;5826;54.756;9.192;2024-01-15T14:34:30;3.10;94.50
11540;DHT22;5826;54.756;9.192;2024-01-15T14:36:56;3.00;94.10
11540;DHT22;5826;54.756;9.192;2024-01-15T14:39:22;3.40;94.50
11540;DHT22;5826;54.756;9.192;2024-01-15T14:41:48;2.80;94.30
11540;DHT22;5826;54.756;9.192;2024-01-15T14:44:14;2.80;94.30
11540;DHT22;5826;54.756;9.192;2024-01-15T14:46:40;2.70;94.30
11540;DHT22;5826;54.756;9.192;2024-01-15T14:49:05;2.70;94.30
11540;DHT22;5826;54.756;9.192;2024-01-15T14:51:31;2.60;94.20
11540;DHT22;5826;54.756;9.192;2024-01-15T14:53:57;2.50;94.20
11540;DHT22;5826;54.756;9.192;2024-01-15T14:56:22;2.50;94.30
11540;DHT22;5826;54.756;9.192;2024-01-15T14:58:48;2.50;94.40
11540;DHT22;5826;54.756;9.192;2024-01-15T15:01:14;2.50;94.40
11540;DHT22;5826;54.756;9.192;2024-01-15T15:03:39;2.50;94.20
11540;DHT22;5826;54.756;9.192;2024-01-15T15:06:06;2.40;94.20
11540;DHT22;5826;54.756;9.192;2024-01-15T15:08:33;2.40;94.10
11540;DHT22;5826;54.756;9.192;2024-01-15T15:10:59;2.40;94.20
11540;DHT22;5826;54.756;9.192;2024-01-15T15:13:25;2.40;94.10
11540;DHT22;5826;54.756;9.192;2024-01-15T15:15:51;2.40;94.10
11540;DHT22;5826;54.756;9.192;2024-01-15T15:18:17;2.40;94.10
11540;DHT22;5826;54.756;9.192;2024-01-15T15:20:43;2.40;94.50
11540;DHT22;5826;54.756;9.192;2024-01-15T15:23:08;2.40;94.10
11540;DHT22;5826;54.756;9.192;2024-01-15T15:25:35;2.40;94.00
11540;DHT22;5826;54.756;9.192;2024-01-15T15:28:01;2.40;94.00
11540;DHT22;5826;54.756;9.192;2024-01-15T15:30:27;2.40;94.00
11540;DHT22;5826;54.756;9.192;2024-01-15T15:32:52;2.40;94.10
11540;DHT22;5826;54.756;9.192;2024-01-15T15:35:18;2.40;94.10
11540;DHT22;5826;54.756;9.192;2024-01-15T15:37:44;2.40;94.20
11540;DHT22;5826;54.756;9.192;2024-01-15T15:40:10;2.40;94.00
11540;DHT22;5826;54.756;9.192;2024-01-15T15:42:43;2.40;93.70
11540;DHT22;5826;54.756;9.192;2024-01-15T15:45:09;2.40;93.80
11540;DHT22;5826;54.756;9.192;2024-01-15T15:47:35;3.10;94.20
11540;DHT22;5826;54.756;9.192;2024-01-15T15:50:01;2.40;94.00
11540;DHT22;5826;54.756;9.192;2024-01-15T15:52:26;2.40;94.00
11540;DHT22;5826;54.756;9.192;2024-01-15T15:54:52;2.40;93.70
11540;DHT22;5826;54.756;9.192;2024-01-15T15:57:17;2.40;93.30
11540;DHT22;5826;54.756;9.192;2024-01-15T15:59:43;2.40;92.90
11540;DHT22;5826;54.756;9.192;2024-01-15T16:02:08;2.40;93.00
11540;DHT22;5826;54.756;9.192;2024-01-15T16:04:34;2.30;92.80
11540;DHT22;5826;54.756;9.192;2024-01-15T16:06:59;2.20;93.50
11540;DHT22;5826;54.756;9.192;2024-01-15T16:09:26;2.60;94.00